Time;durP1;ratioP1;P1;durP2;ratioP2;P2;SDS_P1;SDS_P2;PMS_P1;PMS_P2;Temp;Humidity;BMP_temperature;BMP_pressure;BME280_temperature;BME280_humidity;BME280_pressure;Samples;Min_cycle;Max_cycle;Signal;HPM_P1;HPM_P2
2021/01/11 00:02:13;;;;;;;9.93;6.28;;;;;;;19.59;38.67;100688.53;5010325;28;20084;-75
2021/01/11 00:04:40;;;;;;;10.05;6.22;;;;;;;19.59;38.55;100687.66;5011243;28;20073;-73
2021/01/11 00:07:08;;;;;;;8.85;6.00;;;;;;;19.59;38.49;100688.53;5010067;28;20042;-73
2021/01/11 00:09:34;;;;;;;8.85;5.72;;;;;;;19.58;38.45;100686.78;5019525;28;20033;-75
2021/01/11 00:11:59;;;;;;;8.27;5.82;;;;;;;19.58;38.59;100686.78;5011346;28;20042;-73
2021/01/11 00:14:25;;;;;;;8.10;5.45;;;;;;;19.58;38.49;100680.66;5010217;28;20041;-73
2021/01/11 00:16:51;;;;;;;9.30;5.50;;;;;;;19.57;38.52;100669.28;5020130;28;20168;-72
2021/01/11 00:19:17;;;;;;;8.30;5.40;;;;;;;19.57;38.60;100661.38;5029626;28;20060;-74
2021/01/11 00:21:47;;;;;;;8.07;5.22;;;;;;;19.56;38.70;100666.66;5029622;28;20065;-74
2021/01/11 00:24:13;;;;;;;6.95;5.55;;;;;;;19.56;38.43;100661.38;5033068;28;20072;-72
2021/01/11 00:26:38;;;;;;;7.07;5.40;;;;;;;19.55;38.41;100657.91;5020611;28;20073;-73
2021/01/11 00:29:04;;;;;;;7.05;5.30;;;;;;;19.55;38.37;100655.28;5013810;28;20065;-72
2021/01/11 00:31:29;;;;;;;7.72;5.63;;;;;;;19.54;38.45;100658.78;5014134;28;20091;-73
2021/01/11 00:33:55;;;;;;;7.57;5.68;;;;;;;19.56;38.45;100669.28;5012375;28;20033;-73
2021/01/11 00:36:20;;;;;;;7.45;5.55;;;;;;;19.58;38.20;100667.50;5013887;28;20038;-73
2021/01/11 00:38:46;;;;;;;8.02;5.65;;;;;;;19.59;38.25;100671.88;5029115;28;20030;-73
2021/01/11 00:41:21;;;;;;;8.68;5.72;;;;;;;19.55;38.44;100676.31;5015478;28;20694;-75
2021/01/11 00:43:47;;;;;;;6.60;4.75;;;;;;;19.53;38.41;100669.34;5013900;28;20041;-74
2021/01/11 00:46:29;;;;;;;7.32;4.63;;;;;;;19.54;38.26;100676.34;5013424;28;20037;-73
2021/01/11 00:48:56;;;;;;;7.85;5.45;;;;;;;19.53;38.20;100666.69;5012307;28;20065;-76
2021/01/11 00:51:22;;;;;;;6.82;4.90;;;;;;;19.54;38.31;100674.56;5028809;28;20030;-76
2021/01/11 00:53:47;;;;;;;7.13;5.22;;;;;;;19.55;38.32;100664.91;5032512;28;20099;-73
2021/01/11 00:56:18;;;;;;;6.72;4.95;;;;;;;19.53;38.41;100661.44;5031816;28;20506;-75
2021/01/11 00:58:44;;;;;;;7.07;5.07;;;;;;;19.53;38.38;100667.56;5033263;28;20034;-75
2021/01/11 01:01:10;;;;;;;5.90;4.63;;;;;;;19.53;38.36;100669.34;5021801;28;20045;-73
2021/01/11 01:03:36;;;;;;;7.45;5.10;;;;;;;19.53;38.38;100674.59;5013190;28;20034;-73
2021/01/11 01:06:04;;;;;;;7.65;5.20;;;;;;;19.52;38.30;100671.06;5015107;28;20117;-73
2021/01/11 01:08:31;;;;;;;8.60;5.13;;;;;;;19.52;38.46;100675.47;5017237;28;20025;-72
2021/01/11 01:10:56;;;;;;;6.60;4.78;;;;;;;19.51;38.58;100674.59;5032915;28;20029;-73
2021/01/11 01:13:22;;;;;;;6.90;4.93;;;;;;;19.50;38.33;100677.25;5032094;28;20029;-74
2021/01/11 01:15:47;;;;;;;8.75;5.10;;;;;;;19.50;38.37;100674.63;5031387;28;20056;-74
2021/01/11 01:18:12;;;;;;;6.22;5.05;;;;;;;19.53;38.19;100671.97;5052879;28;20036;-73
2021/01/11 01:20:38;;;;;;;7.93;5.03;;;;;;;19.53;38.33;100677.22;5034549;28;20037;-74
2021/01/11 01:23:03;;;;;;;6.60;4.63;;;;;;;19.51;38.14;100671.97;5032485;28;20033;-75
2021/01/11 01:25:29;;;;;;;7.03;4.82;;;;;;;19.52;38.12;100672.84;5031656;28;20033;-75
2021/01/11 01:27:54;;;;;;;6.97;4.53;;;;;;;19.51;38.33;100666.69;5032846;28;20033;-73
2021/01/11 01:30:20;;;;;;;7.25;4.43;;;;;;;19.53;38.38;100666.69;5028030;28;20041;-74
2021/01/11 01:32:45;;;;;;;6.70;4.40;;;;;;;19.53;38.23;100671.97;5019915;28;20402;-73
2021/01/11 01:35:11;;;;;;;7.80;5.03;;;;;;;19.52;38.20;100675.47;5011987;28;20072;-73
2021/01/11 01:37:37;;;;;;;6.53;4.65;;;;;;;19.50;38.53;100664.97;5012717;28;20572;-73
2021/01/11 01:40:04;;;;;;;7.82;4.78;;;;;;;19.51;38.21;100663.22;5011380;28;20026;-74
2021/01/11 01:42:30;;;;;;;7.88;4.95;;;;;;;19.51;38.21;100658.81;5013247;28;20065;-73
2021/01/11 01:44:55;;;;;;;9.07;4.80;;;;;;;19.51;38.17;100663.22;5011592;28;20450;-73
2021/01/11 01:47:21;;;;;;;7.00;4.88;;;;;;;19.49;38.23;100660.59;5011299;28;20030;-73
2021/01/11 01:49:48;;;;;;;7.13;4.75;;;;;;;19.47;38.09;100660.63;5018213;28;20029;-73
2021/01/11 01:52:13;;;;;;;6.95;4.90;;;;;;;19.51;38.04;100661.44;5032435;28;20041;-76
2021/01/11 01:54:40;;;;;;;6.38;4.13;;;;;;;19.48;38.22;100657.09;5017300;28;20513;-73
2021/01/11 01:57:06;;;;;;;5.80;4.60;;;;;;;19.52;38.35;100654.44;5012442;28;20518;-72
2021/01/11 01:59:32;;;;;;;6.25;4.53;;;;;;;19.53;38.07;100661.44;5012188;28;20120;-74
2021/01/11 02:01:59;;;;;;;6.35;4.80;;;;;;;19.48;38.27;100666.72;5012535;28;20117;-73
2021/01/11 02:04:25;;;;;;;6.53;4.47;;;;;;;19.52;38.27;100665.81;5030457;28;20041;-73
2021/01/11 02:06:57;;;;;;;5.65;4.18;;;;;;;19.50;38.00;100657.06;5016924;28;20034;-74
2021/01/11 02:09:51;;;;;;;5.72;4.30;;;;;;;19.49;38.17;100660.59;5018102;28;20096;-75
2021/01/11 02:12:24;;;;;;;5.72;4.03;;;;;;;19.46;38.19;100661.50;5014833;28;20034;-74
2021/01/11 02:15:08;;;;;;;7.00;4.50;;;;;;;19.50;38.20;100645.69;5012306;28;20042;-74
2021/01/11 02:17:40;;;;;;;7.60;4.50;;;;;;;19.48;38.17;100643.06;5042017;28;20124;-73
2021/01/11 02:20:46;;;;;;;7.78;3.90;;;;;;;19.47;38.12;100651.84;5028031;28;20041;-74
2021/01/11 02:23:30;;;;;;;6.20;4.18;;;;;;;19.46;38.21;100651.00;5011756;28;20618;-74
2021/01/11 02:26:32;;;;;;;6.25;4.13;;;;;;;19.44;38.10;100659.78;5013044;28;20118;-72
2021/01/11 02:29:09;;;;;;;6.93;4.28;;;;;;;19.46;38.30;100658.88;5031520;28;20049;-74
2021/01/11 02:31:37;;;;;;;6.25;4.30;;;;;;;19.45;38.11;100656.28;5017214;28;20529;-74
2021/01/11 02:34:03;;;;;;;6.45;3.97;;;;;;;19.46;38.11;100660.66;5029860;28;20120;-73
2021/01/11 02:36:28;;;;;;;5.20;4.20;;;;;;;19.45;37.98;100654.50;5031636;28;20080;-75
2021/01/11 02:38:55;;;;;;;5.88;4.13;;;;;;;19.46;38.16;100655.38;5029960;28;20042;-74
2021/01/11 02:41:21;;;;;;;6.65;4.15;;;;;;;19.46;38.24;100655.38;5031404;28;20669;-73
2021/01/11 02:43:46;;;;;;;7.70;4.30;;;;;;;19.44;38.30;100658.00;5031376;28;20072;-74
2021/01/11 02:46:12;;;;;;;5.38;3.88;;;;;;;19.45;38.04;100653.66;5028783;28;20124;-74
2021/01/11 02:48:48;;;;;;;5.53;4.03;;;;;;;19.47;38.05;100657.09;5031170;28;20029;-74
2021/01/11 02:51:30;;;;;;;6.88;4.22;;;;;;;19.43;38.03;100651.00;5031087;28;20061;-74
2021/01/11 02:54:06;;;;;;;5.50;3.85;;;;;;;19.43;37.97;100652.78;5026165;28;20119;-74
2021/01/11 02:56:46;;;;;;;6.43;3.38;;;;;;;19.43;38.05;100650.16;5011376;28;20038;-72
2021/01/11 02:59:20;;;;;;;5.75;3.50;;;;;;;19.47;37.97;100643.97;5011258;28;20160;-73
2021/01/11 03:02:10;;;;;;;6.57;4.35;;;;;;;19.43;38.03;100643.13;5010010;28;20391;-72
2021/01/11 03:04:37;;;;;;;7.40;3.83;;;;;;;19.45;38.06;100637.88;5010562;28;20058;-73
2021/01/11 03:07:05;;;;;;;5.35;3.30;;;;;;;19.45;37.70;100638.72;5011326;28;20088;-74
2021/01/11 03:09:31;;;;;;;6.13;3.53;;;;;;;19.48;38.14;100635.19;5010967;28;20026;-73
2021/01/11 03:11:58;;;;;;;4.90;3.53;;;;;;;19.44;38.05;100631.72;5013729;28;20037;-73
2021/01/11 03:14:27;;;;;;;5.45;3.63;;;;;;;19.42;38.08;100625.63;5030781;28;20100;-75
2021/01/11 03:16:53;;;;;;;6.55;3.78;;;;;;;19.44;37.99;100623.84;5030288;28;20164;-73
2021/01/11 03:19:19;;;;;;;4.78;3.30;;;;;;;19.45;37.93;100620.34;5029270;28;20108;-73
2021/01/11 03:21:45;;;;;;;5.65;3.85;;;;;;;19.44;38.07;100621.22;5027538;28;20029;-73
2021/01/11 03:24:13;;;;;;;5.65;3.60;;;;;;;19.42;37.84;100620.34;5011815;28;20681;-75
2021/01/11 03:26:39;;;;;;;5.45;3.42;;;;;;;19.43;38.19;100621.25;5010790;28;20084;-74
2021/01/11 03:29:04;;;;;;;4.97;3.70;;;;;;;19.43;38.16;100614.22;5011702;28;20150;-72
2021/01/11 03:31:30;;;;;;;4.50;3.45;;;;;;;19.44;38.03;100621.22;5010198;28;20065;-74
2021/01/11 03:33:55;;;;;;;5.05;3.15;;;;;;;19.43;37.91;100622.09;5025535;28;20033;-72
2021/01/11 03:36:21;;;;;;;4.93;3.13;;;;;;;19.43;37.94;100610.75;5029392;28;20099;-73
2021/01/11 03:38:46;;;;;;;6.20;3.97;;;;;;;19.43;37.86;100603.72;5030665;28;20030;-73
2021/01/11 03:41:13;;;;;;;4.32;2.90;;;;;;;19.44;37.94;100607.22;5029126;28;20083;-74
2021/01/11 03:43:40;;;;;;;3.85;3.00;;;;;;;19.41;37.97;100602.84;5027222;28;20383;-74
2021/01/11 03:46:06;;;;;;;6.18;3.35;;;;;;;19.41;37.85;100604.63;5029920;28;20522;-73
2021/01/11 03:48:32;;;;;;;5.03;3.83;;;;;;;19.42;37.99;100601.09;5029976;28;20080;-73
2021/01/11 03:50:59;;;;;;;4.07;3.08;;;;;;;19.40;38.01;100603.72;5016607;28;20045;-74
2021/01/11 03:53:25;;;;;;;5.55;3.58;;;;;;;19.40;37.91;100611.63;5008976;28;20052;-74
2021/01/11 03:55:51;;;;;;;4.00;2.92;;;;;;;19.42;38.07;100612.47;5010471;28;20490;-73
2021/01/11 03:58:17;;;;;;;4.82;3.20;;;;;;;19.41;37.91;100610.72;5010217;28;20037;-73
2021/01/11 04:00:42;;;;;;;4.45;2.95;;;;;;;19.43;37.99;100608.09;5010078;28;20046;-73
2021/01/11 04:03:07;;;;;;;5.18;3.55;;;;;;;19.40;38.06;100598.47;5010050;28;20559;-73
2021/01/11 04:05:34;;;;;;;6.07;3.78;;;;;;;19.40;38.12;100608.13;5010114;28;20432;-76
2021/01/11 04:08:00;;;;;;;5.57;3.40;;;;;;;19.40;37.82;100609.00;5018739;28;20037;-73
2021/01/11 04:10:26;;;;;;;5.03;2.85;;;;;;;19.41;37.92;100613.38;5025261;28;21283;-73
2021/01/11 04:12:51;;;;;;;5.47;3.35;;;;;;;19.39;37.76;100607.25;5024590;28;20036;-73
2021/01/11 04:15:16;;;;;;;5.10;3.00;;;;;;;19.41;37.98;100599.38;5024972;28;20409;-75
2021/01/11 04:17:42;;;;;;;3.85;2.95;;;;;;;19.41;37.76;100607.25;5018403;28;20041;-74
2021/01/11 04:20:08;;;;;;;4.13;2.50;;;;;;;19.40;37.93;100600.25;5023517;28;20209;-72
2021/01/11 04:22:34;;;;;;;5.03;3.10;;;;;;;19.39;37.97;100596.75;5030079;28;20113;-75
2021/01/11 04:24:59;;;;;;;4.30;2.75;;;;;;;19.38;37.88;100599.41;5028235;28;20475;-74
2021/01/11 04:27:25;;;;;;;4.13;2.75;;;;;;;19.38;37.89;100595.03;5016564;28;20042;-73
2021/01/11 04:29:50;;;;;;;4.57;2.60;;;;;;;19.37;38.02;100592.41;5009722;28;20045;-73
2021/01/11 04:32:16;;;;;;;3.25;2.47;;;;;;;19.37;37.82;100587.16;5011299;28;20066;-73
2021/01/11 04:34:41;;;;;;;3.45;2.40;;;;;;;19.38;37.64;100589.78;5010107;28;20716;-74
2021/01/11 04:37:08;;;;;;;4.60;2.58;;;;;;;19.39;37.61;100583.59;5009979;28;20034;-75
2021/01/11 04:39:34;;;;;;;3.92;2.58;;;;;;;19.36;37.74;100573.16;5008624;28;20037;-73
2021/01/11 04:42:02;;;;;;;4.32;2.78;;;;;;;19.37;38.04;100582.78;5016916;28;20298;-72
2021/01/11 04:44:29;;;;;;;5.28;3.00;;;;;;;19.38;37.82;100597.66;5028458;28;20041;-74
2021/01/11 04:46:55;;;;;;;3.58;2.67;;;;;;;19.40;37.66;100598.47;5027708;28;20517;-73
2021/01/11 04:49:20;;;;;;;5.18;2.42;;;;;;;19.37;37.80;100595.91;5026992;28;20033;-73
2021/01/11 04:51:46;;;;;;;3.60;2.60;;;;;;;19.38;37.76;100591.50;5029020;28;20042;-73
2021/01/11 04:54:17;;;;;;;4.38;2.67;;;;;;;19.37;37.85;100605.53;5029566;28;20030;-72
2021/01/11 04:56:46;;;;;;;5.82;2.33;;;;;;;19.39;37.69;100603.75;5029528;28;20030;-75
2021/01/11 04:59:17;;;;;;;2.85;2.03;;;;;;;19.38;37.71;100612.53;5029091;28;20030;-74
2021/01/11 05:01:42;;;;;;;3.15;2.15;;;;;;;19.38;37.72;100600.28;5010387;28;20041;-74
2021/01/11 05:04:08;;;;;;;3.13;2.03;;;;;;;19.39;37.35;100578.34;5009254;28;20041;-74
2021/01/11 05:06:34;;;;;;;3.33;2.33;;;;;;;19.39;37.59;100561.72;5026378;28;20509;-72
2021/01/11 05:09:07;;;;;;;3.63;2.38;;;;;;;19.41;37.43;100588.84;5025131;28;20125;-72
2021/01/11 05:11:34;;;;;;;3.90;2.15;;;;;;;19.41;37.49;100579.19;5013356;28;20112;-74
2021/01/11 05:14:00;;;;;;;3.17;2.20;;;;;;;19.39;37.59;100570.47;5032313;28;20043;-73
2021/01/11 05:16:25;;;;;;;3.70;2.20;;;;;;;19.39;37.49;100570.47;5031342;28;20037;-77
2021/01/11 05:18:54;;;;;;;3.58;2.10;;;;;;;19.37;37.63;100590.66;5032789;28;20053;-73
2021/01/11 05:21:38;;;;;;;2.83;2.10;;;;;;;19.35;37.32;100578.41;5032756;28;20045;-72
2021/01/11 05:24:03;;;;;;;3.38;2.15;;;;;;;19.32;37.58;100571.44;5032505;28;20095;-73
2021/01/11 05:26:38;;;;;;;2.92;2.00;;;;;;;19.32;38.00;100587.19;5027321;28;20057;-73
2021/01/11 05:29:18;;;;;;;4.18;2.05;;;;;;;19.31;37.70;100580.22;5022590;28;20044;-73
2021/01/11 05:32:12;;;;;;;3.22;2.13;;;;;;;19.31;37.66;100588.09;5032536;28;20048;-73
2021/01/11 05:34:48;;;;;;;2.03;1.55;;;;;;;19.31;37.64;100567.91;5032627;28;20034;-73
2021/01/11 05:37:30;;;;;;;3.17;2.10;;;;;;;19.32;37.64;100579.31;5032345;28;20033;-73
2021/01/11 05:40:12;;;;;;;2.95;2.00;;;;;;;19.31;37.52;100578.44;5032758;28;20030;-74
2021/01/11 05:42:39;;;;;;;3.03;2.00;;;;;;;19.33;38.04;100586.31;5026561;28;20037;-72
2021/01/11 05:45:12;;;;;;;2.72;1.80;;;;;;;19.30;37.51;100568.84;5012570;28;20052;-73
2021/01/11 05:47:56;;;;;;;2.95;2.15;;;;;;;19.30;37.52;100583.72;5012641;28;20034;-73
2021/01/11 05:50:24;;;;;;;4.13;1.95;;;;;;;19.30;37.54;100576.72;5023353;28;20387;-74
2021/01/11 05:52:50;;;;;;;2.88;2.00;;;;;;;19.32;37.37;100572.28;5018209;28;20112;-75
2021/01/11 05:55:21;;;;;;;2.60;1.88;;;;;;;19.32;37.80;100574.91;5012578;28;20101;-73
2021/01/11 05:57:54;;;;;;;2.72;1.80;;;;;;;19.33;37.46;100576.66;5011923;28;20030;-72
2021/01/11 06:00:22;;;;;;;4.10;2.03;;;;;;;19.33;37.52;100573.19;5012252;28;20232;-73
2021/01/11 06:02:48;;;;;;;3.90;1.70;;;;;;;19.34;37.58;100569.66;5012500;28;20100;-73
2021/01/11 06:05:16;;;;;;;3.10;1.83;;;;;;;19.34;37.41;100580.19;5011275;28;20065;-75
2021/01/11 06:07:43;;;;;;;3.22;1.88;;;;;;;19.30;37.32;100574.09;5012350;28;20026;-75
2021/01/11 06:10:09;;;;;;;2.75;1.80;;;;;;;19.32;37.50;100574.91;5012323;28;20395;-74
2021/01/11 06:12:36;;;;;;;2.78;1.77;;;;;;;19.33;37.38;100575.81;5020196;28;20484;-74
2021/01/11 06:15:02;;;;;;;2.92;1.85;;;;;;;19.32;37.33;100574.06;5017754;28;20518;-74
2021/01/11 06:17:31;;;;;;;3.17;2.00;;;;;;;19.36;37.58;100570.53;5016686;28;20029;-75
2021/01/11 06:19:56;;;;;;;4.63;2.15;;;;;;;19.35;37.41;100562.63;5016870;28;20029;-74
2021/01/11 06:22:44;;;;;;;9.90;2.70;;;;;;;19.36;37.51;100562.63;5022741;28;20563;-73
2021/01/11 06:25:18;;;;;;;10.48;2.33;;;;;;;19.35;37.65;100555.63;5014816;28;20114;-75
2021/01/11 06:27:56;;;;;;;5.07;1.95;;;;;;;19.36;37.51;100554.75;5022583;28;20562;-76
2021/01/11 06:30:33;;;;;;;8.23;2.22;;;;;;;19.38;37.61;100550.34;5015203;28;20033;-75
2021/01/11 06:33:06;;;;;;;4.30;2.10;;;;;;;19.43;37.59;100553.78;5014957;28;20064;-74
2021/01/11 06:35:32;;;;;;;5.45;2.10;;;;;;;19.42;37.73;100559.91;5016955;28;20021;-75
2021/01/11 06:38:20;;;;;;;6.55;2.40;;;;;;;19.44;37.73;100568.66;5033087;28;20033;-74
2021/01/11 06:40:51;;;;;;;8.60;2.17;;;;;;;19.48;37.62;100577.34;5018732;28;20040;-75
2021/01/11 06:43:17;;;;;;;7.47;2.22;;;;;;;19.47;37.78;100578.25;5015990;28;20069;-73
2021/01/11 06:45:44;;;;;;;11.10;2.17;;;;;;;19.46;37.60;100580.03;5016775;28;20049;-74
2021/01/11 06:48:16;;;;;;;8.27;2.13;;;;;;;19.46;37.71;100581.78;5014660;28;20048;-73
2021/01/11 06:50:43;;;;;;;5.97;2.17;;;;;;;19.45;37.44;100588.78;5016041;28;20037;-76
2021/01/11 06:53:09;;;;;;;6.20;2.17;;;;;;;19.46;37.82;100582.66;5016492;28;20037;-77
2021/01/11 06:55:35;;;;;;;8.00;2.53;;;;;;;19.47;37.72;100579.13;5017623;28;20034;-73
2021/01/11 06:58:01;;;;;;;6.40;2.17;;;;;;;19.47;37.82;100578.25;5038657;28;20028;-76
2021/01/11 07:00:39;;;;;;;6.72;1.98;;;;;;;19.51;37.90;100585.22;5021459;28;20053;-74
2021/01/11 07:03:07;;;;;;;9.20;2.28;;;;;;;19.49;37.94;100581.72;5025868;28;20116;-72
2021/01/11 07:05:37;;;;;;;7.65;3.17;;;;;;;19.53;37.87;100572.94;5016155;28;20050;-73
2021/01/11 07:08:06;;;;;;;171.60;20.38;;;;;;;19.61;37.88;100559.69;5011728;28;20033;-81
2021/01/11 07:10:32;;;;;;;11.30;2.25;;;;;;;19.61;37.71;100554.44;5021866;28;20429;-79
2021/01/11 07:13:23;;;;;;;12.00;2.90;;;;;;;19.55;37.63;100551.88;5021730;28;20048;-75
2021/01/11 07:15:51;;;;;;;12.13;2.50;;;;;;;19.51;37.41;100545.78;5011132;28;20048;-72
2021/01/11 07:18:38;;;;;;;6.47;2.53;;;;;;;19.50;37.71;100548.44;5009603;28;20117;-74
2021/01/11 07:21:14;;;;;;;15.40;2.65;;;;;;;19.48;37.72;100548.44;5030230;28;20099;-77
2021/01/11 07:23:40;;;;;;;5.63;2.67;;;;;;;19.48;37.37;100551.97;5025539;28;20615;-72
2021/01/11 07:26:21;;;;;;;5.47;2.45;;;;;;;19.45;37.82;100557.25;5029165;28;20061;-73
2021/01/11 07:28:59;;;;;;;6.30;2.50;;;;;;;19.45;37.27;100546.75;5030747;28;20077;-78
2021/01/11 07:31:38;;;;;;;9.23;3.28;;;;;;;19.45;37.37;100549.38;5030050;28;20046;-78
2021/01/11 07:34:07;;;;;;;6.55;2.53;;;;;;;19.43;37.68;100551.16;5011937;28;20399;-78
2021/01/11 07:36:52;;;;;;;6.65;2.58;;;;;;;19.42;37.39;100552.03;5030937;28;20495;-76
2021/01/11 07:39:20;;;;;;;4.55;2.60;;;;;;;19.43;37.22;100545.03;5025009;28;20050;-76
2021/01/11 07:42:05;;;;;;;3.38;2.35;;;;;;;19.43;37.34;100539.78;5015233;28;20120;-74
2021/01/11 07:44:39;;;;;;;9.60;3.00;;;;;;;19.44;37.52;100550.25;5012569;28;20069;-75
2021/01/11 07:47:08;;;;;;;7.25;2.47;;;;;;;19.43;37.42;100545.88;5018075;28;20034;-72
2021/01/11 07:49:38;;;;;;;4.68;2.28;;;;;;;19.43;37.34;100548.50;5029739;28;20065;-76
2021/01/11 07:52:07;;;;;;;6.00;2.78;;;;;;;19.42;37.40;100538.88;5010909;28;20046;-72
2021/01/11 07:54:33;;;;;;;3.85;2.40;;;;;;;19.42;37.27;100544.16;5010279;28;20034;-76
2021/01/11 07:56:59;;;;;;;4.53;2.28;;;;;;;19.42;37.35;100552.03;5014741;28;20037;-73
2021/01/11 07:59:25;;;;;;;5.82;2.92;;;;;;;19.42;37.34;100553.81;5023446;28;20033;-76
2021/01/11 08:01:54;;;;;;;5.63;2.70;;;;;;;19.46;37.49;100550.25;5026035;28;20426;-72
2021/01/11 08:04:20;;;;;;;4.90;2.45;;;;;;;19.50;37.37;100545.81;5018041;28;20121;-75
2021/01/11 08:06:48;;;;;;;6.15;2.63;;;;;;;19.46;37.24;100535.34;5011255;28;20081;-76
2021/01/11 08:09:14;;;;;;;8.52;3.47;;;;;;;19.45;37.34;100528.34;5019151;28;20029;-72
2021/01/11 08:11:41;;;;;;;5.60;2.45;;;;;;;19.44;37.25;100529.22;5011602;28;20040;-75
2021/01/11 08:14:10;;;;;;;5.88;2.60;;;;;;;19.42;37.12;100528.38;5021258;28;20501;-73
2021/01/11 08:16:36;;;;;;;4.63;2.80;;;;;;;19.43;37.22;100527.50;5010649;28;20092;-75
2021/01/11 08:19:19;;;;;;;5.00;2.80;;;;;;;19.43;37.27;100526.63;5014656;28;20033;-73
2021/01/11 08:21:45;;;;;;;4.45;2.60;;;;;;;19.42;37.34;100532.78;5029787;28;20444;-72
2021/01/11 08:24:10;;;;;;;5.00;2.92;;;;;;;19.43;37.24;100542.41;5029914;28;20038;-73
2021/01/11 08:27:04;;;;;;;4.15;2.17;;;;;;;19.41;37.16;100537.16;5018713;28;20113;-72
2021/01/11 08:29:59;;;;;;;7.18;2.70;;;;;;;19.41;37.25;100536.28;5020773;28;20545;-75
2021/01/11 08:32:26;;;;;;;5.75;2.88;;;;;;;19.40;37.14;100534.56;5022134;28;20053;-76
2021/01/11 08:34:52;;;;;;;4.93;2.75;;;;;;;19.40;37.35;100534.56;5015061;28;20176;-74
2021/01/11 08:37:29;;;;;;;4.43;2.75;;;;;;;19.41;37.06;100534.53;5010449;28;20124;-75
2021/01/11 08:40:06;;;;;;;6.75;2.97;;;;;;;19.41;37.17;100524.00;5021955;28;20764;-74
2021/01/11 08:42:32;;;;;;;6.13;2.90;;;;;;;19.42;37.01;100540.66;5029707;28;20041;-74
2021/01/11 08:45:26;;;;;;;6.10;2.97;;;;;;;19.42;37.01;100541.50;5030399;28;20037;-75
2021/01/11 08:48:23;;;;;;;6.80;2.90;;;;;;;19.40;37.20;100529.28;5034413;28;20044;-72
2021/01/11 08:50:52;;;;;;;4.53;2.67;;;;;;;19.40;36.94;100531.94;5031178;28;20049;-74
2021/01/11 08:53:25;;;;;;;5.50;2.60;;;;;;;19.39;36.97;100510.00;5034189;28;20381;-75
2021/01/11 08:56:01;;;;;;;6.35;2.65;;;;;;;19.40;37.04;100503.00;5034653;28;20409;-74
2021/01/11 08:58:36;;;;;;;5.70;2.67;;;;;;;19.40;36.96;100503.88;5036096;28;20490;-73
2021/01/11 09:01:14;;;;;;;4.93;2.47;;;;;;;19.40;36.94;100501.25;5035630;28;20465;-78
2021/01/11 09:03:50;;;;;;;7.25;2.83;;;;;;;19.40;37.07;100497.75;5034606;28;20049;-75
2021/01/11 09:06:44;;;;;;;4.78;2.88;;;;;;;19.41;36.83;100505.63;5034515;28;20465;-75
2021/01/11 09:09:18;;;;;;;4.57;2.88;;;;;;;19.40;36.97;100509.13;5024266;28;20034;-74
2021/01/11 09:11:46;;;;;;;3.28;2.40;;;;;;;19.40;36.97;100503.88;5015739;28;20140;-73
2021/01/11 09:14:17;;;;;;;3.85;2.78;;;;;;;19.40;36.88;100501.25;5031239;28;20049;-76
2021/01/11 09:16:46;;;;;;;4.43;2.90;;;;;;;19.41;36.86;100502.97;5035293;28;20486;-74
2021/01/11 09:19:19;;;;;;;4.60;2.50;;;;;;;19.42;36.82;100503.88;5033548;28;20033;-73
2021/01/11 09:21:56;;;;;;;4.00;2.42;;;;;;;19.42;36.99;100502.09;5034999;28;20037;-75
2021/01/11 09:24:22;;;;;;;5.82;3.10;;;;;;;19.42;37.10;100512.59;5037207;28;20034;-74
2021/01/11 09:26:47;;;;;;;3.88;2.60;;;;;;;19.43;36.82;100508.25;5037230;28;20025;-76
2021/01/11 09:29:12;;;;;;;3.65;2.60;;;;;;;19.41;36.86;100508.25;5032858;28;20495;-76
2021/01/11 09:31:40;;;;;;;4.07;2.45;;;;;;;19.41;36.95;100508.25;5037257;28;20041;-77
2021/01/11 09:34:06;;;;;;;4.97;2.90;;;;;;;19.43;36.93;100510.88;5031148;28;20038;-77
2021/01/11 09:36:33;;;;;;;4.63;2.35;;;;;;;19.44;36.86;100512.59;5018328;28;20079;-74
2021/01/11 09:38:58;;;;;;;3.85;2.67;;;;;;;19.43;36.53;100510.88;5018029;28;20030;-75
2021/01/11 09:41:24;;;;;;;4.28;2.60;;;;;;;19.43;36.86;100511.72;5017409;28;20040;-74
2021/01/11 09:43:49;;;;;;;3.65;2.47;;;;;;;19.43;36.92;100506.47;5017473;28;20063;-76
2021/01/11 09:46:14;;;;;;;4.43;2.60;;;;;;;19.43;37.02;100509.09;5017152;28;20533;-75
2021/01/11 09:48:40;;;;;;;4.85;2.70;;;;;;;19.45;36.74;100515.19;5015530;28;20161;-76
2021/01/11 09:51:07;;;;;;;4.40;2.78;;;;;;;19.45;36.84;100519.59;5033248;28;20045;-74
2021/01/11 09:53:33;;;;;;;4.13;2.42;;;;;;;19.45;36.84;100511.72;5018167;28;20038;-74
2021/01/11 09:55:58;;;;;;;5.82;3.17;;;;;;;19.45;36.98;100516.97;5017970;28;20045;-74
2021/01/11 09:58:24;;;;;;;4.60;2.50;;;;;;;19.45;36.93;100536.22;5018239;28;20041;-77
2021/01/11 10:00:49;;;;;;;4.25;2.30;;;;;;;19.45;36.86;100525.72;5017994;28;20041;-74
2021/01/11 10:03:14;;;;;;;4.30;2.92;;;;;;;19.45;36.80;100517.84;5018895;28;20065;-76
2021/01/11 10:05:40;;;;;;;4.28;2.55;;;;;;;19.45;36.98;100517.84;5016921;28;20038;-74
2021/01/11 10:08:06;;;;;;;5.72;2.83;;;;;;;19.45;36.66;100515.19;5018361;28;20034;-76
2021/01/11 10:10:31;;;;;;;4.43;2.28;;;;;;;19.46;36.77;100516.94;5036239;28;20517;-74
2021/01/11 10:12:57;;;;;;;4.20;2.47;;;;;;;19.46;36.88;100516.94;5034338;28;20041;-79
2021/01/11 10:15:22;;;;;;;5.25;2.90;;;;;;;19.46;36.60;100519.56;5021397;28;20037;-73
2021/01/11 10:17:48;;;;;;;4.97;3.10;;;;;;;19.47;36.91;100510.78;5038525;28;20029;-75
2021/01/11 10:20:14;;;;;;;5.28;2.53;;;;;;;19.46;36.82;100505.56;5043097;28;20068;-75
2021/01/11 10:22:40;;;;;;;5.78;2.75;;;;;;;19.46;36.72;100503.81;5040209;28;20033;-75
2021/01/11 10:25:07;;;;;;;3.70;2.65;;;;;;;19.47;36.91;100496.78;5040929;28;20053;-74
2021/01/11 10:27:32;;;;;;;3.83;2.35;;;;;;;19.45;37.01;100491.53;5039703;28;20465;-75
2021/01/11 10:29:58;;;;;;;5.97;2.40;;;;;;;19.47;36.94;100487.16;5041066;28;20037;-76
2021/01/11 10:32:24;;;;;;;3.47;2.40;;;;;;;19.48;36.91;100485.38;5038870;28;20037;-75
2021/01/11 10:34:49;;;;;;;4.30;2.40;;;;;;;19.46;36.62;100471.41;5028585;28;20033;-74
2021/01/11 10:37:16;;;;;;;4.57;2.80;;;;;;;19.47;36.86;100463.50;5014087;28;20100;-75
2021/01/11 10:39:41;;;;;;;3.35;2.38;;;;;;;19.46;36.95;100466.16;5012427;28;20084;-75
2021/01/11 10:42:07;;;;;;;3.05;2.17;;;;;;;19.47;36.68;100454.72;5011657;28;20042;-73
2021/01/11 10:44:34;;;;;;;3.90;2.55;;;;;;;19.48;36.77;100461.72;5011393;28;20100;-73
2021/01/11 10:47:00;;;;;;;4.20;2.58;;;;;;;19.48;36.79;100457.34;5009907;28;20033;-77
2021/01/11 10:49:27;;;;;;;3.35;2.30;;;;;;;19.47;36.78;100454.72;5019371;28;20606;-77
2021/01/11 10:51:55;;;;;;;4.25;2.25;;;;;;;19.47;36.67;100452.97;5031055;28;20053;-73
2021/01/11 10:54:20;;;;;;;4.50;2.63;;;;;;;19.48;36.85;100459.09;5030670;28;20038;-75
2021/01/11 10:56:45;;;;;;;6.03;2.28;;;;;;;19.47;36.99;100447.72;5018882;28;20108;-73
2021/01/11 10:59:11;;;;;;;3.63;2.33;;;;;;;19.47;36.75;100442.47;5026472;28;20033;-73
2021/01/11 11:01:37;;;;;;;3.67;2.10;;;;;;;19.49;36.88;100434.53;5030847;28;20064;-75
2021/01/11 11:04:03;;;;;;;3.53;2.20;;;;;;;19.48;36.79;100424.91;5014801;28;20121;-75
2021/01/11 11:06:29;;;;;;;4.00;2.40;;;;;;;19.49;36.86;100429.28;5011114;28;20147;-75
2021/01/11 11:08:54;;;;;;;3.60;2.28;;;;;;;19.48;36.78;100417.03;5018255;28;20510;-76
2021/01/11 11:11:21;;;;;;;4.47;2.95;;;;;;;19.48;36.92;100415.28;5030762;28;20040;-73
2021/01/11 11:13:47;;;;;;;3.30;2.28;;;;;;;19.50;36.67;100422.28;5030618;28;20033;-74
2021/01/11 11:16:13;;;;;;;4.13;2.33;;;;;;;19.50;36.64;100406.50;5012388;28;20057;-74
2021/01/11 11:18:39;;;;;;;4.43;2.00;;;;;;;19.51;36.89;100406.47;5027601;28;20033;-73
2021/01/11 11:21:05;;;;;;;3.78;2.08;;;;;;;19.51;36.57;100403.00;5030335;28;20054;-74
2021/01/11 11:23:31;;;;;;;3.10;2.17;;;;;;;19.51;36.84;100395.09;5028954;28;20048;-73
2021/01/11 11:25:56;;;;;;;3.63;2.25;;;;;;;19.51;36.83;100393.34;5030444;28;20112;-76
2021/01/11 11:28:23;;;;;;;3.05;2.00;;;;;;;19.50;36.85;100378.47;5030195;28;20044;-73
2021/01/11 11:30:48;;;;;;;3.38;2.22;;;;;;;19.51;36.72;100377.56;5030010;28;20057;-73
2021/01/11 11:33:13;;;;;;;3.15;2.25;;;;;;;19.51;36.49;100369.69;5030193;28;20037;-74
2021/01/11 11:35:41;;;;;;;4.93;2.88;;;;;;;19.53;36.81;100370.53;5030305;28;20383;-78